Time;durP1;ratioP1;P1;durP2;ratioP2;P2;SDS_P1;SDS_P2;PMS_P1;PMS_P2;Temp;Humidity;BMP_temperature;BMP_pressure;BME280_temperature;BME280_humidity;BME280_pressure;Samples;Min_cycle;Max_cycle;Signal;HPM_P1;HPM_P2
2021/10/13 02:45:23;;;;;;;5.37;4.53;;;9.90;99.30;;;;;;5795893;24;20155;31
2021/10/13 02:48:00;;;;;;;13.48;4.82;;;9.80;99.30;;;;;;4787541;29;20105;-78
2021/10/13 02:51:01;;;;;;;17.52;4.93;;;9.80;99.20;;;;;;4790975;29;20047;-78
2021/10/13 02:54:07;;;;;;;7.47;5.30;;;9.70;99.00;;;;;;4783633;29;20036;-78
2021/10/13 02:56:38;;;;;;;8.97;5.67;;;9.60;98.80;;;;;;4780788;29;20251;-81
2021/10/13 02:59:06;;;;;;;7.95;5.68;;;9.50;98.80;;;;;;4780686;29;20600;-78
2021/10/13 03:01:41;;;;;;;10.60;5.60;;;9.40;98.90;;;;;;4781637;30;20035;-80
2021/10/13 03:04:16;;;;;;;8.82;6.22;;;9.40;99.20;;;;;;4795581;29;20039;-78
2021/10/13 03:06:51;;;;;;;14.07;5.95;;;9.40;99.00;;;;;;4766513;30;20223;-78
2021/10/13 03:09:20;;;;;;;9.57;5.93;;;9.30;99.20;;;;;;4779170;30;20077;-78
2021/10/13 03:11:48;;;;;;;16.10;6.30;;;9.30;99.10;;;;;;4789218;29;20357;-78
2021/10/13 03:14:17;;;;;;;10.18;6.35;;;9.30;99.30;;;;;;4791319;29;20351;-78
2021/10/13 03:16:44;;;;;;;11.93;6.68;;;9.20;99.20;;;;;;4778806;30;20059;-78
2021/10/13 03:19:11;;;;;;;11.10;6.82;;;9.20;99.20;;;;;;4780540;29;20035;-78
2021/10/13 03:21:40;;;;;;;12.70;6.97;;;9.20;99.10;;;;;;4791436;29;20076;-78
2021/10/13 03:24:06;;;;;;;11.55;7.43;;;9.20;99.00;;;;;;4778654;30;20038;-79
2021/10/13 03:26:31;;;;;;;10.07;7.07;;;9.20;99.00;;;;;;4780161;29;20040;-79
2021/10/13 03:28:57;;;;;;;10.82;7.32;;;9.20;99.10;;;;;;4767172;30;20209;-79
2021/10/13 03:31:23;;;;;;;14.20;6.55;;;9.20;99.10;;;;;;4774027;29;20031;-80
2021/10/13 03:33:49;;;;;;;14.10;7.82;;;9.20;99.10;;;;;;4777298;29;20101;-80
2021/10/13 03:36:16;;;;;;;15.47;7.77;;;9.20;99.20;;;;;;4776970;30;20256;-80
2021/10/13 03:38:41;;;;;;;12.83;8.73;;;9.20;99.20;;;;;;4762258;30;20036;-80
2021/10/13 03:41:07;;;;;;;10.13;7.05;;;9.20;99.40;;;;;;4779427;30;20039;-80
2021/10/13 03:43:33;;;;;;;13.95;8.00;;;9.20;99.50;;;;;;4793034;29;20032;-80
2021/10/13 03:45:59;;;;;;;9.35;6.63;;;9.10;99.70;;;;;;4778248;29;20111;-80
2021/10/13 03:48:27;;;;;;;11.50;6.65;;;9.10;99.80;;;;;;4773672;30;20036;-80
2021/10/13 03:50:53;;;;;;;11.05;6.05;;;9.10;99.80;;;;;;4779948;29;20031;-80
2021/10/13 03:53:19;;;;;;;10.38;5.68;;;9.10;99.70;;;;;;4780060;30;20346;-80
2021/10/13 03:55:44;;;;;;;10.60;6.53;;;9.10;99.60;;;;;;4767580;29;20032;-80
2021/10/13 03:58:10;;;;;;;11.63;6.80;;;9.10;99.60;;;;;;4774496;29;20099;-80
2021/10/13 04:00:36;;;;;;;8.20;5.57;;;9.10;99.70;;;;;;4768101;30;20071;-80
2021/10/13 04:03:02;;;;;;;8.90;6.15;;;9.00;99.90;;;;;;4763008;30;20035;-80
2021/10/13 04:05:28;;;;;;;9.88;6.50;;;9.00;99.80;;;;;;4767835;30;20040;-80
2021/10/13 04:07:53;;;;;;;11.38;6.57;;;9.00;99.70;;;;;;4767459;30;20038;-80
2021/10/13 04:10:19;;;;;;;12.23;6.60;;;8.90;99.70;;;;;;4774667;29;20044;-80
2021/10/13 04:12:45;;;;;;;9.30;6.75;;;8.80;99.80;;;;;;4779536;29;20153;-80
2021/10/13 04:15:11;;;;;;;8.70;5.93;;;8.90;99.80;;;;;;4770323;29;20120;-80
2021/10/13 04:17:37;;;;;;;12.23;6.40;;;8.90;99.70;;;;;;4793327;30;20031;-80
2021/10/13 04:20:10;;;;;;;10.73;6.97;;;8.80;99.80;;;;;;4798389;29;20086;-80
2021/10/13 04:22:36;;;;;;;9.57;6.18;;;8.90;99.80;;;;;;4779394;29;20035;-80
2021/10/13 04:25:03;;;;;;;9.20;5.78;;;8.80;99.90;;;;;;4767087;29;20047;-80
2021/10/13 04:27:28;;;;;;;11.45;6.45;;;8.80;99.90;;;;;;4769528;29;20055;-80
2021/10/13 04:29:54;;;;;;;9.50;6.72;;;8.80;99.90;;;;;;4779117;29;20127;-80
2021/10/13 04:32:20;;;;;;;14.00;7.50;;;8.80;99.90;;;;;;4774138;29;20034;-80
2021/10/13 04:34:50;;;;;;;14.68;7.47;;;8.80;99.90;;;;;;4776115;29;20398;-79
2021/10/13 04:37:18;;;;;;;13.70;7.47;;;8.80;99.90;;;;;;4767260;30;20032;-79
2021/10/13 04:39:43;;;;;;;11.93;8.25;;;8.80;99.90;;;;;;4787379;30;20035;-78
2021/10/13 04:42:09;;;;;;;13.10;7.55;;;8.80;99.90;;;;;;4809128;29;20047;-79
2021/10/13 04:44:35;;;;;;;11.25;7.70;;;8.80;99.90;;;;;;4766803;29;20035;-79
2021/10/13 04:47:00;;;;;;;11.38;6.95;;;8.70;99.90;;;;;;4771110;29;20063;-78
2021/10/13 04:49:26;;;;;;;9.60;6.65;;;8.80;99.90;;;;;;4775809;29;20046;-79
2021/10/13 04:51:52;;;;;;;13.10;7.13;;;8.70;99.90;;;;;;4768146;30;20046;-78
2021/10/13 04:54:19;;;;;;;9.07;6.10;;;8.70;99.90;;;;;;4775994;29;20024;-78
2021/10/13 04:56:45;;;;;;;7.80;6.13;;;8.70;99.90;;;;;;4777664;29;20032;-78
2021/10/13 04:59:11;;;;;;;11.15;6.80;;;8.70;99.90;;;;;;4776878;29;20041;-78
2021/10/13 05:01:36;;;;;;;9.27;6.32;;;8.70;99.80;;;;;;4778647;29;20331;-78
2021/10/13 05:04:02;;;;;;;8.55;6.07;;;8.60;99.90;;;;;;4766679;29;20032;-78
2021/10/13 05:06:28;;;;;;;10.52;5.72;;;8.60;99.80;;;;;;4776065;29;20047;-80
2021/10/13 05:08:53;;;;;;;11.90;5.90;;;8.70;99.70;;;;;;4778762;29;20040;-78
2021/10/13 05:11:19;;;;;;;10.35;6.55;;;8.70;99.60;;;;;;4767327;29;20114;-79
2021/10/13 05:13:45;;;;;;;8.80;6.30;;;8.60;99.60;;;;;;4775483;29;20407;-78
2021/10/13 05:16:11;;;;;;;10.30;5.57;;;8.60;99.50;;;;;;4775910;29;20103;-78
2021/10/13 05:18:37;;;;;;;12.13;6.45;;;8.70;99.50;;;;;;4765482;30;20373;-78
2021/10/13 05:21:03;;;;;;;12.52;6.13;;;8.70;99.50;;;;;;4772633;29;20055;-78
2021/10/13 05:23:28;;;;;;;9.23;5.88;;;8.70;99.50;;;;;;4763431;30;20036;-78
2021/10/13 05:25:54;;;;;;;10.63;5.97;;;8.70;99.40;;;;;;4778466;29;20486;-78
2021/10/13 05:28:20;;;;;;;13.93;5.78;;;8.60;99.40;;;;;;4770094;30;20032;-78
2021/10/13 05:30:46;;;;;;;15.85;6.43;;;8.70;99.30;;;;;;4778329;29;20035;-78
2021/10/13 05:33:12;;;;;;;12.52;6.60;;;8.70;99.10;;;;;;4778386;29;20042;-78
2021/10/13 05:35:38;;;;;;;14.93;6.85;;;8.70;99.10;;;;;;4772170;29;20498;-78
2021/10/13 05:38:04;;;;;;;10.90;5.82;;;8.60;99.00;;;;;;4776121;29;20039;-78
2021/10/13 05:40:29;;;;;;;12.15;6.90;;;8.70;98.80;;;;;;4776202;29;20035;-78
2021/10/13 05:42:55;;;;;;;10.93;6.30;;;8.70;98.70;;;;;;4775339;30;20038;-78
2021/10/13 05:45:21;;;;;;;10.32;6.75;;;8.70;98.70;;;;;;4761842;30;20279;-78
2021/10/13 05:47:47;;;;;;;11.93;6.85;;;8.70;98.60;;;;;;4765846;29;20063;-78
2021/10/13 05:50:12;;;;;;;10.20;6.43;;;8.70;98.40;;;;;;4777661;30;20042;-78
2021/10/13 05:52:38;;;;;;;12.63;6.80;;;8.70;98.40;;;;;;4774128;30;20050;-78
2021/10/13 05:55:04;;;;;;;17.65;7.28;;;8.70;98.20;;;;;;4771729;30;20031;-78
2021/10/13 05:57:30;;;;;;;12.77;6.95;;;8.70;98.10;;;;;;4788272;30;20038;-79
2021/10/13 05:59:58;;;;;;;10.68;6.80;;;8.70;98.10;;;;;;4788922;29;20035;-79
2021/10/13 06:02:24;;;;;;;12.98;6.95;;;8.80;98.10;;;;;;4785994;30;20249;-79
2021/10/13 06:04:50;;;;;;;12.82;6.65;;;8.80;98.00;;;;;;4791790;29;20035;-79
2021/10/13 06:07:16;;;;;;;10.85;7.00;;;8.90;98.10;;;;;;4793091;29;20108;-79
2021/10/13 06:09:42;;;;;;;15.43;7.03;;;8.90;98.10;;;;;;4791127;29;20035;-79
2021/10/13 06:12:08;;;;;;;12.10;6.68;;;8.90;98.00;;;;;;4791780;29;20066;-79
2021/10/13 06:14:34;;;;;;;11.98;7.00;;;9.00;97.80;;;;;;4793284;29;20034;-79
2021/10/13 06:17:00;;;;;;;10.38;6.28;;;9.00;97.70;;;;;;4795517;29;20032;-79
2021/10/13 06:19:25;;;;;;;9.55;6.50;;;9.00;97.70;;;;;;4793094;29;20032;-79
2021/10/13 06:21:51;;;;;;;14.10;6.28;;;9.00;97.80;;;;;;4793026;29;20038;-79
2021/10/13 06:24:17;;;;;;;9.65;5.60;;;9.10;97.40;;;;;;4789028;29;20343;-79
2021/10/13 06:26:43;;;;;;;12.10;6.30;;;9.20;97.20;;;;;;4775126;29;20219;-79
2021/10/13 06:29:09;;;;;;;11.00;5.80;;;9.40;96.70;;;;;;4792127;29;20048;-79
2021/10/13 06:31:36;;;;;;;10.68;5.90;;;9.60;96.60;;;;;;4789265;29;20043;-79
2021/10/13 06:34:01;;;;;;;9.88;5.85;;;9.70;95.90;;;;;;4775361;30;20043;-78
2021/10/13 06:36:27;;;;;;;9.73;6.32;;;9.70;95.40;;;;;;4774491;29;20304;-79
2021/10/13 06:38:53;;;;;;;9.02;5.60;;;9.80;95.70;;;;;;4776672;29;20028;-79
2021/10/13 06:41:20;;;;;;;9.73;7.28;;;9.90;95.40;;;;;;4778330;30;20035;-78
2021/10/13 06:43:46;;;;;;;8.85;6.45;;;9.90;95.10;;;;;;4777925;30;20216;-78
2021/10/13 06:46:11;;;;;;;13.73;5.72;;;9.90;94.90;;;;;;4772663;30;20098;-78
2021/10/13 06:48:37;;;;;;;12.93;6.40;;;9.90;94.90;;;;;;4776120;30;20028;-77
2021/10/13 06:51:03;;;;;;;9.80;6.28;;;10.00;94.60;;;;;;4766613;30;20087;-78
2021/10/13 06:53:29;;;;;;;8.57;5.55;;;9.90;94.60;;;;;;4783060;29;20319;-79
2021/10/13 06:55:55;;;;;;;12.57;6.03;;;10.00;94.30;;;;;;4782540;30;20102;-78
2021/10/13 06:58:21;;;;;;;11.95;5.80;;;10.00;94.30;;;;;;4796337;29;20307;-80
2021/10/13 07:00:47;;;;;;;9.73;5.65;;;10.10;94.50;;;;;;4800613;29;20054;-78
2021/10/13 07:03:13;;;;;;;10.23;5.53;;;10.30;93.80;;;;;;4801447;29;20272;-80
2021/10/13 07:05:38;;;;;;;6.72;5.00;;;10.30;93.60;;;;;;4787404;29;20103;-78
2021/10/13 07:08:05;;;;;;;7.10;5.22;;;10.40;92.90;;;;;;4792274;29;20088;-78
2021/10/13 07:10:31;;;;;;;10.13;5.28;;;10.40;92.60;;;;;;4767710;30;20050;-78
2021/10/13 07:12:57;;;;;;;15.00;5.28;;;10.50;92.30;;;;;;4779302;29;20276;-80
2021/10/13 07:15:22;;;;;;;8.73;5.72;;;10.40;92.10;;;;;;4785991;29;20026;-80
2021/10/13 07:17:49;;;;;;;8.35;4.88;;;10.50;92.50;;;;;;4801718;29;20027;-80
2021/10/13 07:20:15;;;;;;;7.93;5.15;;;10.70;92.10;;;;;;4789420;29;20032;-79
2021/10/13 07:22:41;;;;;;;7.60;4.43;;;10.80;92.00;;;;;;4789807;30;20038;-79
2021/10/13 07:25:08;;;;;;;8.73;5.20;;;10.90;92.00;;;;;;4785960;29;20030;-77
2021/10/13 07:27:35;;;;;;;8.30;4.70;;;11.10;91.70;;;;;;4797227;29;20061;-79
2021/10/13 07:30:02;;;;;;;7.07;4.45;;;11.10;90.80;;;;;;4778535;29;20720;-77
2021/10/13 07:32:29;;;;;;;;;;;11.10;91.00;;;;;;4782364;30;20436;-77
2021/10/13 07:34:54;;;;;;;;;;;11.10;90.70;;;;;;4786703;30;20046;-78
2021/10/13 07:37:21;;;;;;;10.07;4.80;;;11.00;90.60;;;;;;4794075;29;20087;-78
2021/10/13 07:39:47;;;;;;;13.40;5.33;;;11.10;91.20;;;;;;4783823;30;20035;-78
2021/10/13 07:42:18;;;;;;;10.63;5.15;;;11.20;90.80;;;;;;4779631;30;20091;-77
2021/10/13 07:44:44;;;;;;;9.43;4.70;;;11.30;90.50;;;;;;4783430;29;20118;-80
2021/10/13 07:47:10;;;;;;;8.43;4.43;;;11.40;90.00;;;;;;4792390;29;20074;-80
2021/10/13 07:49:37;;;;;;;7.95;4.47;;;11.50;88.00;;;;;;4786247;29;20047;-77
2021/10/13 07:52:04;;;;;;;8.77;3.92;;;11.60;88.70;;;;;;4773766;30;20348;-78
2021/10/13 07:54:30;;;;;;;10.45;4.30;;;11.60;87.00;;;;;;4774614;30;20089;-78
2021/10/13 07:56:56;;;;;;;8.50;4.43;;;11.60;88.00;;;;;;4778426;29;20035;-80
2021/10/13 07:59:22;;;;;;;10.30;4.28;;;11.60;87.30;;;;;;4780028;30;20235;-78
2021/10/13 08:01:47;;;;;;;7.90;4.63;;;11.60;87.70;;;;;;4783829;30;20076;-80
2021/10/13 08:04:13;;;;;;;8.55;4.75;;;11.60;88.50;;;;;;4774470;30;20279;-80
2021/10/13 08:06:39;;;;;;;14.23;4.63;;;11.70;88.50;;;;;;4778979;30;20046;-80
2021/10/13 08:09:05;;;;;;;6.93;4.25;;;11.70;87.80;;;;;;4768987;30;20107;-80
2021/10/13 08:11:31;;;;;;;8.77;4.20;;;11.60;87.70;;;;;;4793193;29;20375;-80
2021/10/13 08:13:58;;;;;;;7.60;4.38;;;11.60;88.60;;;;;;4778107;30;20073;-82
2021/10/13 08:16:24;;;;;;;8.13;4.75;;;11.50;88.20;;;;;;4796307;29;20058;-79
2021/10/13 08:18:50;;;;;;;11.95;4.53;;;11.50;87.90;;;;;;4788496;29;20071;-79
2021/10/13 08:21:15;;;;;;;18.60;4.47;;;11.50;87.40;;;;;;4778355;30;20032;-80
2021/10/13 08:23:41;;;;;;;6.90;4.03;;;11.50;88.30;;;;;;4777864;30;20037;-80
2021/10/13 08:26:07;;;;;;;7.10;4.72;;;11.50;87.20;;;;;;4777878;29;20108;-80
2021/10/13 08:28:33;;;;;;;9.70;4.53;;;11.40;88.10;;;;;;4768929;29;20103;-80
2021/10/13 08:30:59;;;;;;;6.25;3.90;;;11.40;89.00;;;;;;4764375;30;20027;-80
2021/10/13 08:33:24;;;;;;;13.85;4.63;;;11.60;89.30;;;;;;4772274;30;20105;-80
2021/10/13 08:35:50;;;;;;;6.57;3.92;;;11.70;89.00;;;;;;4770131;29;20035;-80
2021/10/13 08:38:16;;;;;;;5.38;4.03;;;11.80;87.20;;;;;;4777974;29;20028;-80
2021/10/13 08:40:43;;;;;;;9.27;3.50;;;11.70;87.10;;;;;;4770667;29;20074;-80
2021/10/13 08:43:09;;;;;;;9.30;4.70;;;11.70;87.30;;;;;;4776598;29;20063;-80
2021/10/13 08:45:36;;;;;;;9.68;4.40;;;11.70;86.70;;;;;;4745218;30;20289;-80
2021/10/13 08:48:04;;;;;;;7.55;4.00;;;11.60;87.10;;;;;;4779938;29;20234;-80
2021/10/13 08:50:35;;;;;;;7.60;4.20;;;11.60;87.30;;;;;;4778017;29;20032;-80
2021/10/13 08:53:09;;;;;;;6.90;4.22;;;11.60;88.10;;;;;;4770462;29;20032;-80
2021/10/13 08:55:37;;;;;;;11.10;3.72;;;11.60;87.50;;;;;;4775186;29;20078;-80
2021/10/13 08:58:18;;;;;;;11.15;3.38;;;11.70;88.60;;;;;;4778496;29;20062;-80
2021/10/13 09:00:47;;;;;;;7.07;3.70;;;11.80;87.50;;;;;;4768283;30;20046;-80
2021/10/13 09:03:29;;;;;;;9.43;4.32;;;11.90;86.40;;;;;;4775328;30;20056;-80
2021/10/13 09:05:56;;;;;;;6.93;3.72;;;11.80;86.50;;;;;;4778105;29;20227;-80
2021/10/13 09:08:22;;;;;;;7.32;3.03;;;11.90;86.30;;;;;;4777829;30;20031;-80
2021/10/13 09:10:48;;;;;;;6.75;3.47;;;11.90;85.80;;;;;;4772695;29;20339;-80
2021/10/13 09:13:17;;;;;;;5.60;3.72;;;11.90;85.60;;;;;;4778383;30;20028;-80
2021/10/13 09:15:51;;;;;;;13.43;3.20;;;12.00;85.90;;;;;;4766881;29;20066;-80
2021/10/13 09:18:22;;;;;;;8.65;3.60;;;12.10;85.80;;;;;;4766037;30;20197;-80
2021/10/13 09:20:53;;;;;;;8.93;3.72;;;12.20;84.10;;;;;;4781232;29;20046;-80
2021/10/13 09:23:20;;;;;;;5.20;3.22;;;12.20;84.70;;;;;;4772430;30;20055;-80
2021/10/13 09:26:05;;;;;;;4.45;2.92;;;12.30;84.00;;;;;;4777269;29;20107;-80
2021/10/13 09:28:31;;;;;;;7.05;3.78;;;12.30;83.80;;;;;;4765316;30;20189;-81
2021/10/13 09:31:20;;;;;;;7.68;3.47;;;12.40;83.90;;;;;;4775041;29;20085;-80
2021/10/13 09:33:58;;;;;;;5.22;3.05;;;12.40;82.70;;;;;;4774491;29;20040;-80
2021/10/13 09:36:35;;;;;;;8.02;2.83;;;12.40;83.10;;;;;;4745144;30;20047;-80
2021/10/13 09:39:08;;;;;;;;;;;12.50;83.10;;;;;;4771344;30;20019;-80
2021/10/13 09:42:19;;;;;;;5.32;2.47;;;12.60;82.10;;;;;;4777253;30;19913;-80
2021/10/13 09:45:00;;;;;;;8.00;3.47;;;12.70;81.80;;;;;;4760064;30;20044;-80
2021/10/13 09:47:29;;;;;;;5.53;2.65;;;12.80;79.90;;;;;;4767482;30;20079;-80
2021/10/13 09:49:55;;;;;;;6.47;2.30;;;12.90;79.70;;;;;;4776523;30;20406;-80
2021/10/13 09:52:30;;;;;;;5.47;1.90;;;12.90;79.50;;;;;;4776742;30;20039;-79
2021/10/13 09:55:05;;;;;;;5.20;2.50;;;13.00;78.10;;;;;;4776941;30;20126;-80
2021/10/13 09:57:32;;;;;;;11.23;2.38;;;12.90;77.70;;;;;;4776880;30;20123;-79
2021/10/13 10:00:03;;;;;;;3.20;1.77;;;13.00;78.30;;;;;;4776969;30;20044;-80
2021/10/13 10:02:53;;;;;;;3.58;1.77;;;13.00;76.10;;;;;;4776807;30;20102;-80
2021/10/13 10:05:23;;;;;;;9.55;1.45;;;13.30;75.90;;;;;;4776655;30;20039;-80
2021/10/13 10:08:21;;;;;;;3.67;1.45;;;13.70;75.00;;;;;;4767133;30;20112;-80
2021/10/13 10:11:07;;;;;;;2.60;1.27;;;14.00;72.20;;;;;;4724088;30;20053;-80
2021/10/13 10:13:42;;;;;;;3.53;1.55;;;14.50;71.30;;;;;;4723754;30;20061;-81
2021/10/13 10:16:11;;;;;;;5.68;1.30;;;14.80;66.70;;;;;;4724050;30;20056;-80
2021/10/13 10:18:39;;;;;;;7.70;1.90;;;15.10;67.40;;;;;;4723873;30;20059;-80
2021/10/13 10:21:18;;;;;;;4.78;1.45;;;15.40;66.10;;;;;;4719848;30;20075;-80
2021/10/13 10:23:49;;;;;;;6.85;1.95;;;15.80;62.80;;;;;;4709341;30;20052;-80
2021/10/13 10:26:29;;;;;;;3.95;1.58;;;15.80;58.20;;;;;;4709373;30;20056;-80
2021/10/13 10:28:57;;;;;;;7.13;1.98;;;15.70;59.10;;;;;;4711719;30;20052;-80
2021/10/13 10:31:28;;;;;;;1.65;0.98;;;15.40;60.10;;;;;;4709430;30;20045;-80
2021/10/13 10:34:02;;;;;;;1.90;0.80;;;15.40;61.60;;;;;;4708819;30;20360;-80
2021/10/13 10:36:48;;;;;;;5.15;1.33;;;15.50;59.50;;;;;;4709309;30;20037;-80
2021/10/13 10:39:16;;;;;;;3.42;1.35;;;15.50;58.80;;;;;;4711446;30;20301;-80
2021/10/13 10:41:46;;;;;;;2.65;1.00;;;15.20;59.00;;;;;;4709078;30;20033;-79
2021/10/13 10:44:54;;;;;;;3.47;1.05;;;14.60;65.20;;;;;;4708122;30;20045;-80
2021/10/13 10:47:20;;;;;;;2.90;1.23;;;14.10;67.60;;;;;;4774122;30;20069;-80
2021/10/13 10:49:46;;;;;;;2.17;0.90;;;13.70;68.80;;;;;;4782595;30;20415;-80
2021/10/13 10:52:17;;;;;;;8.38;1.25;;;13.60;71.10;;;;;;4782380;30;20063;-80
2021/10/13 10:55:04;;;;;;;2.75;1.08;;;13.70;68.00;;;;;;4797683;30;20031;-80
2021/10/13 10:57:30;;;;;;;2.03;1.00;;;13.70;69.90;;;;;;4782477;30;20282;-80
2021/10/13 10:59:57;;;;;;;5.43;1.45;;;14.00;69.40;;;;;;4782682;30;20039;-80
2021/10/13 11:02:24;;;;;;;6.70;1.38;;;14.10;68.80;;;;;;4761437;30;20288;-80
2021/10/13 11:05:08;;;;;;;4.60;1.55;;;14.30;67.30;;;;;;4761717;30;20339;-80
2021/10/13 11:07:35;;;;;;;3.05;1.38;;;14.60;65.90;;;;;;4747041;30;20368;-80
2021/10/13 11:10:04;;;;;;;6.13;1.48;;;14.60;65.60;;;;;;4732370;30;20085;-80
2021/10/13 11:12:52;;;;;;;4.22;1.23;;;14.70;66.60;;;;;;4761887;30;20060;-80
2021/10/13 11:15:21;;;;;;;4.03;1.33;;;14.90;66.50;;;;;;4747115;30;20036;-80
2021/10/13 11:17:48;;;;;;;2.30;1.05;;;15.00;65.40;;;;;;4734025;30;20339;-80
2021/10/13 11:20:16;;;;;;;6.95;2.17;;;14.80;65.10;;;;;;4746858;30;20067;-79
2021/10/13 11:22:43;;;;;;;1.90;1.27;;;14.60;65.00;;;;;;4741524;30;20270;-80
2021/10/13 11:25:16;;;;;;;3.53;1.20;;;14.40;66.50;;;;;;4766291;30;20036;-80
2021/10/13 11:27:55;;;;;;;2.45;1.15;;;14.60;63.90;;;;;;4755648;30;20079;-80
2021/10/13 11:30:21;;;;;;;2.17;1.10;;;14.50;62.00;;;;;;4769834;30;20067;-80
2021/10/13 11:32:47;;;;;;;4.10;1.00;;;14.70;62.60;;;;;;4767282;30;20103;-80
2021/10/13 11:35:13;;;;;;;3.22;0.93;;;14.50;60.40;;;;;;4738017;30;20066;-80
2021/10/13 11:37:39;;;;;;;4.97;1.05;;;14.30;59.70;;;;;;4755437;30;20129;-80
2021/10/13 11:40:12;;;;;;;5.47;1.15;;;14.20;60.00;;;;;;4765128;30;20373;-80
2021/10/13 11:42:38;;;;;;;6.00;1.20;;;14.20;60.10;;;;;;4786860;29;20071;-79
2021/10/13 11:45:05;;;;;;;6.00;1.50;;;14.20;60.40;;;;;;4762037;30;20272;-80
2021/10/13 11:47:33;;;;;;;4.47;1.77;;;14.20;59.50;;;;;;4768311;30;20352;-79
2021/10/13 11:50:05;;;;;;;12.48;1.55;;;14.40;60.90;;;;;;4761638;30;20668;-79
2021/10/13 11:52:31;;;;;;;4.25;1.50;;;14.70;60.50;;;;;;4776293;30;20063;-80
2021/10/13 11:54:59;;;;;;;7.07;1.63;;;14.90;59.90;;;;;;4772558;30;20351;-80
2021/10/13 11:57:25;;;;;;;5.18;1.10;;;15.10;59.70;;;;;;4785142;29;20102;-80
2021/10/13 12:00:15;;;;;;;4.80;1.83;;;15.20;59.40;;;;;;4784814;29;20043;-80
2021/10/13 12:03:03;;;;;;;2.55;1.40;;;15.20;60.00;;;;;;4798068;29;20039;-80
2021/10/13 12:05:41;;;;;;;2.30;1.00;;;15.30;59.50;;;;;;4788258;29;20069;-80
2021/10/13 12:08:09;;;;;;;4.25;1.67;;;15.20;60.20;;;;;;4800842;29;20035;-79
2021/10/13 12:10:44;;;;;;;2.15;0.77;;;15.00;60.20;;;;;;4804162;29;20046;-80
2021/10/13 12:13:14;;;;;;;4.50;1.63;;;14.80;61.00;;;;;;4793930;29;20376;-80
2021/10/13 12:15:41;;;;;;;6.32;1.10;;;14.60;61.30;;;;;;4802497;29;20346;-79
2021/10/13 12:18:11;;;;;;;4.07;1.70;;;14.40;61.70;;;;;;4784669;30;20023;-79
2021/10/13 12:20:37;;;;;;;5.32;1.33;;;14.50;61.80;;;;;;4796229;29;20319;-79
2021/10/13 12:23:16;;;;;;;3.63;1.02;;;14.50;61.60;;;;;;4779966;29;20039;-80
2021/10/13 12:25:42;;;;;;;6.32;1.50;;;14.40;61.50;;;;;;4784423;30;20043;-79
2021/10/13 12:28:15;;;;;;;5.03;1.10;;;14.30;63.00;;;;;;4777900;30;20038;-79
2021/10/13 12:30:41;;;;;;;3.90;1.02;;;14.20;62.70;;;;;;4780939;30;20039;-79
2021/10/13 12:33:15;;;;;;;1.52;1.00;;;13.90;63.60;;;;;;4780047;30;20102;-79
2021/10/13 12:35:41;;;;;;;2.67;0.95;;;13.70;64.50;;;;;;4793182;30;20039;-79
2021/10/13 12:38:17;;;;;;;2.58;1.13;;;13.50;65.00;;;;;;4781094;30;20039;-80
2021/10/13 12:41:00;;;;;;;2.63;1.10;;;13.30;65.90;;;;;;4779132;30;20035;-79
2021/10/13 12:43:26;;;;;;;1.23;0.90;;;13.20;66.30;;;;;;4761304;30;20303;-79
2021/10/13 12:45:52;;;;;;;1.83;1.27;;;13.10;66.90;;;;;;4760871;30;20281;-79
2021/10/13 12:48:21;;;;;;;1.10;0.90;;;13.10;67.30;;;;;;4773780;29;20055;-79
2021/10/13 12:51:12;;;;;;;2.17;1.13;;;13.10;66.90;;;;;;4777453;30;20111;-79
2021/10/13 12:53:39;;;;;;;1.65;1.05;;;13.20;67.50;;;;;;4773639;30;20103;-79
2021/10/13 12:56:06;;;;;;;4.35;1.35;;;13.10;66.50;;;;;;4794807;29;20074;-79
2021/10/13 12:58:32;;;;;;;6.57;1.17;;;13.20;67.20;;;;;;4783693;29;20043;-79
2021/10/13 13:00:58;;;;;;;2.15;1.30;;;13.20;68.10;;;;;;4799685;29;20082;-79
2021/10/13 13:03:24;;;;;;;2.25;1.30;;;13.10;67.10;;;;;;4796918;29;20052;-80
2021/10/13 13:05:52;;;;;;;4.00;1.92;;;13.20;68.10;;;;;;4781337;29;20031;-80
2021/10/13 13:08:19;;;;;;;10.23;1.55;;;13.30;68.00;;;;;;4785208;29;20066;-79
2021/10/13 13:10:45;;;;;;;7.07;1.50;;;13.40;68.20;;;;;;4779513;29;20035;-79
2021/10/13 13:13:11;;;;;;;4.38;1.80;;;13.50;68.60;;;;;;4770829;30;20039;-79
2021/10/13 13:15:37;;;;;;;5.13;1.73;;;13.50;67.90;;;;;;4765336;30;20030;-79
2021/10/13 13:18:04;;;;;;;3.35;1.67;;;13.60;68.80;;;;;;4772935;30;20036;-80
2021/10/13 13:20:30;;;;;;;5.35;1.70;;;13.50;68.70;;;;;;4756824;30;20097;-78
2021/10/13 13:22:55;;;;;;;2.67;1.42;;;13.40;68.70;;;;;;4766350;30;20032;-79
2021/10/13 13:25:21;;;;;;;10.50;1.95;;;13.40;69.00;;;;;;4771341;30;20418;-79
2021/10/13 13:27:47;;;;;;;3.45;1.30;;;13.30;69.70;;;;;;4778465;29;20047;-79
2021/10/13 13:30:13;;;;;;;5.53;2.03;;;13.40;69.90;;;;;;4765699;30;20046;-79
2021/10/13 13:32:39;;;;;;;2.63;1.50;;;13.50;69.40;;;;;;4774186;29;20081;-79
2021/10/13 13:35:06;;;;;;;4.15;1.58;;;13.60;69.10;;;;;;4763983;30;20024;-79
2021/10/13 13:37:32;;;;;;;7.00;1.58;;;13.70;69.00;;;;;;4767748;30;20019;-79
2021/10/13 13:39:58;;;;;;;3.72;1.60;;;13.80;68.40;;;;;;4771072;30;20113;-79
2021/10/13 13:42:24;;;;;;;5.13;1.60;;;13.80;67.80;;;;;;4777705;29;20038;-79
2021/10/13 13:44:50;;;;;;;4.97;1.75;;;13.70;68.20;;;;;;4789820;29;20055;-79
2021/10/13 13:47:16;;;;;;;6.35;1.90;;;13.60;68.60;;;;;;4786489;29;20378;-79
2021/10/13 13:49:42;;;;;;;6.78;2.03;;;13.60;68.30;;;;;;4784736;29;20032;-79
2021/10/13 13:52:07;;;;;;;4.82;1.65;;;13.40;69.80;;;;;;4771304;30;20028;-79
2021/10/13 13:54:33;;;;;;;2.80;1.63;;;13.30;72.60;;;;;;4792551;29;20271;-80
2021/10/13 13:56:59;;;;;;;10.02;1.52;;;13.10;76.70;;;;;;4796020;29;20049;-80
2021/10/13 13:59:25;;;;;;;6.82;1.70;;;12.70;78.40;;;;;;4800148;29;20052;-81
2021/10/13 14:01:51;;;;;;;3.22;1.10;;;12.40;79.10;;;;;;4773192;29;20428;-80
2021/10/13 14:04:16;;;;;;;1.77;1.13;;;12.20;79.00;;;;;;4770500;29;20029;-80
2021/10/13 14:06:42;;;;;;;4.30;1.75;;;12.00;78.20;;;;;;4779373;29;20350;-80
2021/10/13 14:09:08;;;;;;;2.58;1.40;;;12.00;79.80;;;;;;4796423;29;20063;-80
2021/10/13 14:11:34;;;;;;;1.15;1.05;;;12.00;80.70;;;;;;4778130;29;20029;-80
2021/10/13 14:14:01;;;;;;;2.47;1.27;;;12.10;79.70;;;;;;4780111;29;20081;-80
2021/10/13 14:16:26;;;;;;;5.68;1.60;;;12.10;79.10;;;;;;4763991;30;20063;-80
2021/10/13 14:18:52;;;;;;;1.70;1.45;;;12.10;79.90;;;;;;4759897;30;20051;-80
2021/10/13 14:21:18;;;;;;;2.67;1.48;;;12.10;80.10;;;;;;4776935;30;20036;-80
2021/10/13 14:23:44;;;;;;;7.95;1.75;;;12.00;80.10;;;;;;4780592;29;20035;-80
2021/10/13 14:26:10;;;;;;;3.88;1.52;;;12.00;80.30;;;;;;4784208;29;20396;-80
2021/10/13 14:28:36;;;;;;;2.42;1.58;;;12.00;80.70;;;;;;4779736;29;20136;-80
2021/10/13 14:31:03;;;;;;;4.15;1.75;;;12.00;80.40;;;;;;4774915;30;20227;-80
2021/10/13 14:33:29;;;;;;;6.00;2.33;;;11.90;81.00;;;;;;4783645;29;20339;-80
2021/10/13 14:35:55;;;;;;;7.80;2.05;;;11.80;81.70;;;;;;4791511;29;20030;-80
2021/10/13 14:38:21;;;;;;;4.13;2.20;;;11.80;83.60;;;;;;4795321;29;20020;-79
2021/10/13 14:40:46;;;;;;;3.97;2.25;;;11.60;86.00;;;;;;4782456;29;20115;-80
2021/10/13 14:43:14;;;;;;;3.38;1.88;;;11.40;89.60;;;;;;4768331;30;20082;-81
2021/10/13 14:45:40;;;;;;;5.25;2.38;;;11.20;90.70;;;;;;4788988;29;20032;-80
2021/10/13 14:48:06;;;;;;;4.38;1.60;;;11.20;91.00;;;;;;4781540;29;20043;-80
2021/10/13 14:50:32;;;;;;;3.17;1.85;;;11.10;90.90;;;;;;4791143;29;20067;-81
2021/10/13 14:52:57;;;;;;;3.47;1.88;;;11.10;90.80;;;;;;4782852;29;20043;-81
2021/10/13 14:55:23;;;;;;;7.20;1.95;;;11.20;90.60;;;;;;4780182;30;20073;-81
2021/10/13 14:57:49;;;;;;;3.88;1.83;;;11.20;90.80;;;;;;4780736;29;20036;-81
2021/10/13 15:00:15;;;;;;;6.38;2.05;;;11.10;90.80;;;;;;4788146;29;20345;-81
2021/10/13 15:02:42;;;;;;;5.38;2.20;;;11.10;90.80;;;;;;4777979;29;20035;-81
2021/10/13 15:05:08;;;;;;;3.35;1.75;;;11.00;90.70;;;;;;4778372;30;20035;-80
2021/10/13 15:07:34;;;;;;;3.50;2.28;;;10.90;90.50;;;;;;4778017;29;20212;-81
2021/10/13 15:09:59;;;;;;;4.45;2.70;;;10.90;90.70;;;;;;4778267;29;20035;-81
2021/10/13 15:12:25;;;;;;;5.68;2.40;;;10.90;90.90;;;;;;4780075;29;20019;-81
2021/10/13 15:14:51;;;;;;;4.53;2.17;;;10.90;91.00;;;;;;4768327;30;20228;-81
2021/10/13 15:17:17;;;;;;;5.60;2.33;;;10.90;91.30;;;;;;4778898;30;20106;-81
2021/10/13 15:19:42;;;;;;;7.57;2.65;;;10.80;91.40;;;;;;4779778;29;20036;-81
2021/10/13 15:22:08;;;;;;;6.82;2.47;;;10.80;91.50;;;;;;4780282;29;20036;-81
2021/10/13 15:24:34;;;;;;;6.80;2.83;;;10.70;91.60;;;;;;4774324;29;20067;-80
2021/10/13 15:27:05;;;;;;;5.72;2.45;;;10.80;91.90;;;;;;4781028;29;20035;-81
2021/10/13 15:29:31;;;;;;;6.20;3.42;;;10.70;91.90;;;;;;4774209;30;20047;-81
2021/10/13 15:32:00;;;;;;;4.88;2.90;;;10.70;92.10;;;;;;4778311;30;20032;-81
2021/10/13 15:34:26;;;;;;;8.00;3.08;;;10.70;92.10;;;;;;4779499;30;20031;-81
2021/10/13 15:36:53;;;;;;;6.75;3.25;;;10.60;92.20;;;;;;4779105;29;20035;-81
2021/10/13 15:39:21;;;;;;;8.25;3.35;;;10.60;92.40;;;;;;4776937;29;20223;-80